sensor_id;sensor_type;location;lat;lon;timestamp;P1;durP1;ratioP1;P2;durP2;ratioP2
70293;SDS011;72548;48.884;2.334;2023-10-09T00:01:25;16.23;;;6.00;;
70293;SDS011;72548;48.884;2.334;2023-10-09T00:03:51;14.93;;;5.70;;
70293;SDS011;72548;48.884;2.334;2023-10-09T00:06:19;16.23;;;6.00;;
70293;SDS011;72548;48.884;2.334;2023-10-09T00:09:02;17.38;;;6.43;;
70293;SDS011;72548;48.884;2.334;2023-10-09T00:11:42;18.10;;;6.17;;
70293;SDS011;72548;48.884;2.334;2023-10-09T00:14:09;16.92;;;6.40;;
70293;SDS011;72548;48.884;2.334;2023-10-09T00:16:40;17.92;;;5.93;;
70293;SDS011;72548;48.884;2.334;2023-10-09T00:19:13;17.45;;;5.93;;
70293;SDS011;72548;48.884;2.334;2023-10-09T00:21:48;15.90;;;5.90;;
70293;SDS011;72548;48.884;2.334;2023-10-09T00:24:15;15.23;;;6.17;;
70293;SDS011;72548;48.884;2.334;2023-10-09T00:26:52;16.17;;;6.07;;
70293;SDS011;72548;48.884;2.334;2023-10-09T00:29:27;19.25;;;4.90;;
70293;SDS011;72548;48.884;2.334;2023-10-09T00:31:59;17.63;;;6.28;;
70293;SDS011;72548;48.884;2.334;2023-10-09T00:34:38;16.05;;;5.75;;
70293;SDS011;72548;48.884;2.334;2023-10-09T00:37:09;12.40;;;4.43;;
70293;SDS011;72548;48.884;2.334;2023-10-09T00:39:41;13.82;;;4.28;;
70293;SDS011;72548;48.884;2.334;2023-10-09T00:42:09;13.63;;;5.10;;
70293;SDS011;72548;48.884;2.334;2023-10-09T00:44:39;14.23;;;5.13;;
70293;SDS011;72548;48.884;2.334;2023-10-09T00:47:10;21.05;;;5.72;;
70293;SDS011;72548;48.884;2.334;2023-10-09T00:49:49;18.00;;;4.90;;
70293;SDS011;72548;48.884;2.334;2023-10-09T00:52:23;15.45;;;5.38;;
70293;SDS011;72548;48.884;2.334;2023-10-09T00:54:56;17.30;;;4.95;;
70293;SDS011;72548;48.884;2.334;2023-10-09T00:57:29;14.57;;;4.90;;
70293;SDS011;72548;48.884;2.334;2023-10-09T00:59:57;14.40;;;5.30;;
70293;SDS011;72548;48.884;2.334;2023-10-09T01:02:28;17.37;;;5.63;;
70293;SDS011;72548;48.884;2.334;2023-10-09T01:05:03;16.60;;;5.28;;
70293;SDS011;72548;48.884;2.334;2023-10-09T01:07:45;22.95;;;5.30;;
70293;SDS011;72548;48.884;2.334;2023-10-09T01:10:12;15.43;;;5.80;;
70293;SDS011;72548;48.884;2.334;2023-10-09T01:12:41;19.40;;;5.95;;
70293;SDS011;72548;48.884;2.334;2023-10-09T01:15:09;16.57;;;5.30;;
70293;SDS011;72548;48.884;2.334;2023-10-09T01:17:42;15.77;;;5.38;;
70293;SDS011;72548;48.884;2.334;2023-10-09T01:20:10;12.65;;;5.32;;
70293;SDS011;72548;48.884;2.334;2023-10-09T01:22:41;15.05;;;4.82;;
70293;SDS011;72548;48.884;2.334;2023-10-09T01:25:08;14.27;;;4.97;;
70293;SDS011;72548;48.884;2.334;2023-10-09T01:27:35;14.17;;;4.93;;
70293;SDS011;72548;48.884;2.334;2023-10-09T01:30:03;17.35;;;5.13;;
70293;SDS011;72548;48.884;2.334;2023-10-09T01:32:30;13.93;;;5.15;;
70293;SDS011;72548;48.884;2.334;2023-10-09T01:34:55;15.53;;;5.47;;
70293;SDS011;72548;48.884;2.334;2023-10-09T01:37:22;20.67;;;5.72;;
70293;SDS011;72548;48.884;2.334;2023-10-09T01:39:48;18.47;;;5.53;;
70293;SDS011;72548;48.884;2.334;2023-10-09T01:42:16;18.20;;;6.13;;
70293;SDS011;72548;48.884;2.334;2023-10-09T01:44:49;17.40;;;5.78;;
70293;SDS011;72548;48.884;2.334;2023-10-09T01:47:14;18.60;;;5.60;;
70293;SDS011;72548;48.884;2.334;2023-10-09T01:49:43;18.25;;;5.28;;
70293;SDS011;72548;48.884;2.334;2023-10-09T01:52:09;16.48;;;5.57;;
70293;SDS011;72548;48.884;2.334;2023-10-09T01:54:40;15.43;;;6.07;;
70293;SDS011;72548;48.884;2.334;2023-10-09T01:57:07;16.97;;;5.67;;
70293;SDS011;72548;48.884;2.334;2023-10-09T01:59:40;11.75;;;5.03;;
70293;SDS011;72548;48.884;2.334;2023-10-09T02:02:11;15.93;;;5.28;;
70293;SDS011;72548;48.884;2.334;2023-10-09T02:04:54;15.05;;;4.97;;
70293;SDS011;72548;48.884;2.334;2023-10-09T02:07:32;16.65;;;5.07;;
70293;SDS011;72548;48.884;2.334;2023-10-09T02:10:05;19.50;;;6.07;;
70293;SDS011;72548;48.884;2.334;2023-10-09T02:12:36;20.63;;;7.10;;
70293;SDS011;72548;48.884;2.334;2023-10-09T02:15:02;19.02;;;6.45;;
70293;SDS011;72548;48.884;2.334;2023-10-09T02:17:40;17.65;;;6.45;;
70293;SDS011;72548;48.884;2.334;2023-10-09T02:20:17;19.97;;;6.47;;
70293;SDS011;72548;48.884;2.334;2023-10-09T02:22:53;18.77;;;6.60;;
70293;SDS011;72548;48.884;2.334;2023-10-09T02:25:19;18.75;;;6.47;;
70293;SDS011;72548;48.884;2.334;2023-10-09T02:27:46;19.13;;;6.80;;
70293;SDS011;72548;48.884;2.334;2023-10-09T02:30:18;23.13;;;7.10;;
70293;SDS011;72548;48.884;2.334;2023-10-09T02:32:52;16.58;;;6.15;;
70293;SDS011;72548;48.884;2.334;2023-10-09T02:35:31;21.60;;;6.38;;
70293;SDS011;72548;48.884;2.334;2023-10-09T02:38:04;16.30;;;6.43;;
70293;SDS011;72548;48.884;2.334;2023-10-09T02:40:35;18.47;;;7.20;;
70293;SDS011;72548;48.884;2.334;2023-10-09T02:43:20;16.92;;;6.70;;
70293;SDS011;72548;48.884;2.334;2023-10-09T02:45:46;16.80;;;6.15;;
70293;SDS011;72548;48.884;2.334;2023-10-09T02:48:16;24.63;;;10.03;;
70293;SDS011;72548;48.884;2.334;2023-10-09T02:50:44;17.00;;;5.97;;
70293;SDS011;72548;48.884;2.334;2023-10-09T02:53:09;14.90;;;6.28;;
70293;SDS011;72548;48.884;2.334;2023-10-09T02:55:43;18.80;;;5.50;;
70293;SDS011;72548;48.884;2.334;2023-10-09T02:58:18;17.40;;;6.05;;
70293;SDS011;72548;48.884;2.334;2023-10-09T03:00:46;17.48;;;5.95;;
70293;SDS011;72548;48.884;2.334;2023-10-09T03:03:13;11.98;;;5.45;;
70293;SDS011;72548;48.884;2.334;2023-10-09T03:05:41;12.43;;;5.05;;
70293;SDS011;72548;48.884;2.334;2023-10-09T03:08:08;13.67;;;5.27;;
70293;SDS011;72548;48.884;2.334;2023-10-09T03:10:37;12.68;;;5.28;;
70293;SDS011;72548;48.884;2.334;2023-10-09T03:13:03;14.30;;;4.78;;
70293;SDS011;72548;48.884;2.334;2023-10-09T03:15:30;13.60;;;4.10;;
70293;SDS011;72548;48.884;2.334;2023-10-09T03:18:00;12.52;;;4.80;;
70293;SDS011;72548;48.884;2.334;2023-10-09T03:20:27;14.70;;;4.30;;
70293;SDS011;72548;48.884;2.334;2023-10-09T03:22:53;15.57;;;3.35;;
70293;SDS011;72548;48.884;2.334;2023-10-09T03:25:19;13.60;;;3.75;;
70293;SDS011;72548;48.884;2.334;2023-10-09T03:27:45;12.90;;;3.97;;
70293;SDS011;72548;48.884;2.334;2023-10-09T03:30:14;16.13;;;4.53;;
70293;SDS011;72548;48.884;2.334;2023-10-09T03:32:47;16.13;;;4.40;;
70293;SDS011;72548;48.884;2.334;2023-10-09T03:35:19;18.63;;;4.00;;
70293;SDS011;72548;48.884;2.334;2023-10-09T03:37:56;9.60;;;3.17;;
70293;SDS011;72548;48.884;2.334;2023-10-09T03:40:25;11.52;;;3.20;;
70293;SDS011;72548;48.884;2.334;2023-10-09T03:42:52;20.67;;;3.88;;
70293;SDS011;72548;48.884;2.334;2023-10-09T03:45:18;11.20;;;3.10;;
70293;SDS011;72548;48.884;2.334;2023-10-09T03:47:53;10.90;;;3.60;;
70293;SDS011;72548;48.884;2.334;2023-10-09T03:50:22;14.18;;;3.53;;
70293;SDS011;72548;48.884;2.334;2023-10-09T03:53:03;15.52;;;4.03;;
70293;SDS011;72548;48.884;2.334;2023-10-09T03:55:34;14.23;;;3.10;;
70293;SDS011;72548;48.884;2.334;2023-10-09T03:58:00;15.57;;;3.55;;
70293;SDS011;72548;48.884;2.334;2023-10-09T04:00:28;14.13;;;4.37;;
70293;SDS011;72548;48.884;2.334;2023-10-09T04:02:57;15.38;;;3.45;;
70293;SDS011;72548;48.884;2.334;2023-10-09T04:05:24;16.50;;;4.18;;
70293;SDS011;72548;48.884;2.334;2023-10-09T04:07:50;12.05;;;4.03;;
70293;SDS011;72548;48.884;2.334;2023-10-09T04:10:18;13.30;;;3.43;;
70293;SDS011;72548;48.884;2.334;2023-10-09T04:13:03;12.13;;;3.47;;
70293;SDS011;72548;48.884;2.334;2023-10-09T04:15:33;13.40;;;3.25;;
70293;SDS011;72548;48.884;2.334;2023-10-09T04:18:00;13.77;;;3.13;;
70293;SDS011;72548;48.884;2.334;2023-10-09T04:20:26;17.83;;;3.27;;
70293;SDS011;72548;48.884;2.334;2023-10-09T04:23:11;14.05;;;3.25;;
70293;SDS011;72548;48.884;2.334;2023-10-09T04:25:41;11.73;;;3.60;;
70293;SDS011;72548;48.884;2.334;2023-10-09T04:28:07;8.50;;;2.40;;
70293;SDS011;72548;48.884;2.334;2023-10-09T04:30:38;11.93;;;3.40;;
70293;SDS011;72548;48.884;2.334;2023-10-09T04:33:11;11.90;;;2.97;;
70293;SDS011;72548;48.884;2.334;2023-10-09T04:36:05;17.13;;;2.92;;
70293;SDS011;72548;48.884;2.334;2023-10-09T04:38:44;15.65;;;2.55;;
70293;SDS011;72548;48.884;2.334;2023-10-09T04:41:28;9.98;;;2.75;;
70293;SDS011;72548;48.884;2.334;2023-10-09T04:43:57;11.00;;;2.92;;
70293;SDS011;72548;48.884;2.334;2023-10-09T04:46:42;17.60;;;2.87;;
70293;SDS011;72548;48.884;2.334;2023-10-09T04:49:11;13.02;;;2.70;;
70293;SDS011;72548;48.884;2.334;2023-10-09T04:51:53;10.77;;;2.67;;
70293;SDS011;72548;48.884;2.334;2023-10-09T04:54:43;11.95;;;2.70;;
70293;SDS011;72548;48.884;2.334;2023-10-09T04:57:27;12.43;;;2.55;;
70293;SDS011;72548;48.884;2.334;2023-10-09T04:59:52;10.63;;;2.47;;
70293;SDS011;72548;48.884;2.334;2023-10-09T05:02:23;11.55;;;2.55;;
70293;SDS011;72548;48.884;2.334;2023-10-09T05:05:01;12.50;;;2.43;;
70293;SDS011;72548;48.884;2.334;2023-10-09T05:07:41;11.80;;;2.83;;
70293;SDS011;72548;48.884;2.334;2023-10-09T05:10:22;10.10;;;2.83;;
70293;SDS011;72548;48.884;2.334;2023-10-09T05:12:50;12.68;;;2.38;;
70293;SDS011;72548;48.884;2.334;2023-10-09T05:15:25;12.75;;;2.95;;
70293;SDS011;72548;48.884;2.334;2023-10-09T05:17:54;14.83;;;3.17;;
70293;SDS011;72548;48.884;2.334;2023-10-09T05:20:22;14.43;;;3.05;;
70293;SDS011;72548;48.884;2.334;2023-10-09T05:22:50;14.95;;;2.90;;
70293;SDS011;72548;48.884;2.334;2023-10-09T05:25:44;9.27;;;3.08;;
70293;SDS011;72548;48.884;2.334;2023-10-09T05:28:20;14.43;;;3.42;;
70293;SDS011;72548;48.884;2.334;2023-10-09T05:31:13;12.60;;;2.27;;
70293;SDS011;72548;48.884;2.334;2023-10-09T05:33:59;12.07;;;2.67;;
70293;SDS011;72548;48.884;2.334;2023-10-09T05:36:26;7.80;;;2.75;;
70293;SDS011;72548;48.884;2.334;2023-10-09T05:38:51;13.27;;;2.47;;
70293;SDS011;72548;48.884;2.334;2023-10-09T05:41:35;10.60;;;3.10;;
70293;SDS011;72548;48.884;2.334;2023-10-09T05:44:17;14.80;;;2.80;;
70293;SDS011;72548;48.884;2.334;2023-10-09T05:47:02;10.75;;;2.72;;
70293;SDS011;72548;48.884;2.334;2023-10-09T05:49:46;12.38;;;2.53;;
70293;SDS011;72548;48.884;2.334;2023-10-09T05:52:12;13.43;;;2.50;;
70293;SDS011;72548;48.884;2.334;2023-10-09T05:54:56;14.30;;;2.50;;
70293;SDS011;72548;48.884;2.334;2023-10-09T05:57:40;11.57;;;2.58;;
70293;SDS011;72548;48.884;2.334;2023-10-09T06:00:21;10.27;;;2.60;;
70293;SDS011;72548;48.884;2.334;2023-10-09T06:03:05;17.40;;;3.00;;
70293;SDS011;72548;48.884;2.334;2023-10-09T06:05:46;20.17;;;3.07;;
70293;SDS011;72548;48.884;2.334;2023-10-09T06:08:22;8.93;;;2.53;;
70293;SDS011;72548;48.884;2.334;2023-10-09T06:10:54;16.77;;;2.70;;
70293;SDS011;72548;48.884;2.334;2023-10-09T06:13:52;14.27;;;2.38;;
70293;SDS011;72548;48.884;2.334;2023-10-09T06:16:41;11.77;;;2.65;;
70293;SDS011;72548;48.884;2.334;2023-10-09T06:19:08;12.83;;;2.97;;
70293;SDS011;72548;48.884;2.334;2023-10-09T06:21:51;10.93;;;2.38;;
70293;SDS011;72548;48.884;2.334;2023-10-09T06:24:18;12.45;;;2.53;;
70293;SDS011;72548;48.884;2.334;2023-10-09T06:26:45;12.88;;;3.38;;
70293;SDS011;72548;48.884;2.334;2023-10-09T06:29:24;12.40;;;3.45;;
70293;SDS011;72548;48.884;2.334;2023-10-09T06:32:08;15.63;;;2.57;;
70293;SDS011;72548;48.884;2.334;2023-10-09T06:34:46;18.67;;;3.40;;
70293;SDS011;72548;48.884;2.334;2023-10-09T06:37:16;14.68;;;3.58;;
70293;SDS011;72548;48.884;2.334;2023-10-09T06:39:48;10.40;;;2.75;;
70293;SDS011;72548;48.884;2.334;2023-10-09T06:45:11;14.70;;;3.30;;
70293;SDS011;72548;48.884;2.334;2023-10-09T06:47:46;14.82;;;3.45;;
70293;SDS011;72548;48.884;2.334;2023-10-09T06:50:21;16.17;;;3.35;;
70293;SDS011;72548;48.884;2.334;2023-10-09T06:55:25;11.75;;;3.42;;
70293;SDS011;72548;48.884;2.334;2023-10-09T06:58:02;11.83;;;3.63;;
70293;SDS011;72548;48.884;2.334;2023-10-09T07:00:41;11.85;;;3.30;;
70293;SDS011;72548;48.884;2.334;2023-10-09T07:03:25;12.38;;;3.50;;
70293;SDS011;72548;48.884;2.334;2023-10-09T07:06:10;14.73;;;3.05;;
70293;SDS011;72548;48.884;2.334;2023-10-09T07:09:11;24.13;;;3.75;;
70293;SDS011;72548;48.884;2.334;2023-10-09T07:11:37;13.80;;;3.30;;
70293;SDS011;72548;48.884;2.334;2023-10-09T07:14:24;15.05;;;4.03;;
70293;SDS011;72548;48.884;2.334;2023-10-09T07:16:56;15.55;;;3.70;;
70293;SDS011;72548;48.884;2.334;2023-10-09T07:19:32;13.13;;;3.13;;
70293;SDS011;72548;48.884;2.334;2023-10-09T07:21:57;21.33;;;3.60;;
70293;SDS011;72548;48.884;2.334;2023-10-09T07:24:28;11.90;;;3.17;;
70293;SDS011;72548;48.884;2.334;2023-10-09T07:27:10;14.90;;;3.80;;
70293;SDS011;72548;48.884;2.334;2023-10-09T07:29:39;12.50;;;4.45;;
70293;SDS011;72548;48.884;2.334;2023-10-09T07:32:16;14.85;;;4.20;;
70293;SDS011;72548;48.884;2.334;2023-10-09T07:34:52;17.80;;;4.03;;
70293;SDS011;72548;48.884;2.334;2023-10-09T07:37:25;18.87;;;4.67;;
70293;SDS011;72548;48.884;2.334;2023-10-09T07:40:02;17.23;;;4.43;;
70293;SDS011;72548;48.884;2.334;2023-10-09T07:42:32;17.15;;;4.75;;
70293;SDS011;72548;48.884;2.334;2023-10-09T07:45:01;22.00;;;4.75;;
70293;SDS011;72548;48.884;2.334;2023-10-09T07:47:47;22.65;;;4.63;;
70293;SDS011;72548;48.884;2.334;2023-10-09T07:50:34;14.33;;;3.97;;
70293;SDS011;72548;48.884;2.334;2023-10-09T07:53:13;19.42;;;4.03;;
70293;SDS011;72548;48.884;2.334;2023-10-09T07:55:52;19.30;;;4.57;;
70293;SDS011;72548;48.884;2.334;2023-10-09T07:58:23;19.95;;;4.95;;
70293;SDS011;72548;48.884;2.334;2023-10-09T08:00:56;17.60;;;4.53;;
70293;SDS011;72548;48.884;2.334;2023-10-09T08:03:31;18.40;;;4.23;;
70293;SDS011;72548;48.884;2.334;2023-10-09T08:05:59;49.28;;;6.82;;
70293;SDS011;72548;48.884;2.334;2023-10-09T08:08:43;20.35;;;4.53;;
70293;SDS011;72548;48.884;2.334;2023-10-09T08:11:31;27.85;;;5.28;;
70293;SDS011;72548;48.884;2.334;2023-10-09T08:14:08;27.45;;;5.28;;
70293;SDS011;72548;48.884;2.334;2023-10-09T08:16:53;26.10;;;4.67;;
70293;SDS011;72548;48.884;2.334;2023-10-09T08:19:36;21.92;;;5.03;;
70293;SDS011;72548;48.884;2.334;2023-10-09T08:22:17;22.20;;;5.07;;
70293;SDS011;72548;48.884;2.334;2023-10-09T08:25:03;21.63;;;5.63;;
70293;SDS011;72548;48.884;2.334;2023-10-09T08:27:29;25.30;;;6.80;;
70293;SDS011;72548;48.884;2.334;2023-10-09T08:29:58;21.85;;;6.22;;
70293;SDS011;72548;48.884;2.334;2023-10-09T08:32:42;24.27;;;6.72;;
70293;SDS011;72548;48.884;2.334;2023-10-09T08:35:08;16.45;;;4.72;;
70293;SDS011;72548;48.884;2.334;2023-10-09T08:37:53;24.13;;;6.75;;
70293;SDS011;72548;48.884;2.334;2023-10-09T08:40:19;22.90;;;5.80;;
70293;SDS011;72548;48.884;2.334;2023-10-09T08:42:46;21.90;;;5.95;;
70293;SDS011;72548;48.884;2.334;2023-10-09T08:45:19;20.88;;;6.80;;
70293;SDS011;72548;48.884;2.334;2023-10-09T08:47:49;19.83;;;6.60;;
70293;SDS011;72548;48.884;2.334;2023-10-09T08:50:19;24.38;;;7.22;;
70293;SDS011;72548;48.884;2.334;2023-10-09T08:52:46;18.85;;;5.80;;
70293;SDS011;72548;48.884;2.334;2023-10-09T08:55:13;18.80;;;5.07;;
70293;SDS011;72548;48.884;2.334;2023-10-09T08:57:42;21.35;;;5.28;;
70293;SDS011;72548;48.884;2.334;2023-10-09T09:00:17;25.23;;;5.50;;
70293;SDS011;72548;48.884;2.334;2023-10-09T09:02:49;18.05;;;5.25;;
70293;SDS011;72548;48.884;2.334;2023-10-09T09:05:18;17.17;;;5.90;;
70293;SDS011;72548;48.884;2.334;2023-10-09T09:07:45;17.15;;;5.40;;
70293;SDS011;72548;48.884;2.334;2023-10-09T09:10:13;16.58;;;5.38;;
70293;SDS011;72548;48.884;2.334;2023-10-09T09:12:56;18.47;;;5.67;;
70293;SDS011;72548;48.884;2.334;2023-10-09T09:15:28;25.00;;;6.40;;
70293;SDS011;72548;48.884;2.334;2023-10-09T09:18:07;20.48;;;5.05;;
70293;SDS011;72548;48.884;2.334;2023-10-09T09:20:36;21.60;;;5.03;;
70293;SDS011;72548;48.884;2.334;2023-10-09T09:23:05;17.33;;;5.35;;
70293;SDS011;72548;48.884;2.334;2023-10-09T09:25:44;21.07;;;5.60;;
70293;SDS011;72548;48.884;2.334;2023-10-09T09:28:15;21.45;;;5.13;;
70293;SDS011;72548;48.884;2.334;2023-10-09T09:30:46;23.63;;;6.38;;
70293;SDS011;72548;48.884;2.334;2023-10-09T09:33:22;20.23;;;6.20;;
70293;SDS011;72548;48.884;2.334;2023-10-09T09:36:01;19.98;;;5.20;;
70293;SDS011;72548;48.884;2.334;2023-10-09T09:38:29;17.73;;;6.10;;
70293;SDS011;72548;48.884;2.334;2023-10-09T09:41:06;27.42;;;7.03;;
70293;SDS011;72548;48.884;2.334;2023-10-09T09:43:34;17.83;;;5.95;;
70293;SDS011;72548;48.884;2.334;2023-10-09T09:46:23;21.20;;;6.00;;
70293;SDS011;72548;48.884;2.334;2023-10-09T09:48:58;17.15;;;5.50;;
70293;SDS011;72548;48.884;2.334;2023-10-09T09:51:25;19.38;;;5.65;;
70293;SDS011;72548;48.884;2.334;2023-10-09T09:53:54;21.47;;;5.43;;
70293;SDS011;72548;48.884;2.334;2023-10-09T09:56:20;18.75;;;5.55;;
70293;SDS011;72548;48.884;2.334;2023-10-09T09:58:49;21.25;;;6.00;;
70293;SDS011;72548;48.884;2.334;2023-10-09T10:01:18;20.60;;;5.63;;
70293;SDS011;72548;48.884;2.334;2023-10-09T10:03:52;15.63;;;5.20;;
70293;SDS011;72548;48.884;2.334;2023-10-09T10:06:23;20.13;;;6.40;;
70293;SDS011;72548;48.884;2.334;2023-10-09T10:08:53;18.40;;;5.38;;
70293;SDS011;72548;48.884;2.334;2023-10-09T10:14:08;17.30;;;4.90;;
70293;SDS011;72548;48.884;2.334;2023-10-09T10:20:03;14.75;;;4.65;;
70293;SDS011;72548;48.884;2.334;2023-10-09T10:22:42;23.17;;;7.32;;
70293;SDS011;72548;48.884;2.334;2023-10-09T10:30:56;18.65;;;4.70;;
70293;SDS011;72548;48.884;2.334;2023-10-09T10:33:25;10.40;;;3.95;;
70293;SDS011;72548;48.884;2.334;2023-10-09T10:36:10;16.75;;;3.63;;
70293;SDS011;72548;48.884;2.334;2023-10-09T10:38:40;12.20;;;3.53;;
70293;SDS011;72548;48.884;2.334;2023-10-09T10:43:43;15.07;;;3.67;;
70293;SDS011;72548;48.884;2.334;2023-10-09T10:46:15;17.20;;;4.15;;
70293;SDS011;72548;48.884;2.334;2023-10-09T10:48:56;14.18;;;3.42;;
70293;SDS011;72548;48.884;2.334;2023-10-09T10:51:39;11.57;;;3.55;;
70293;SDS011;72548;48.884;2.334;2023-10-09T10:54:06;17.33;;;4.23;;
70293;SDS011;72548;48.884;2.334;2023-10-09T10:57:01;15.25;;;3.78;;
70293;SDS011;72548;48.884;2.334;2023-10-09T10:59:32;10.13;;;3.67;;
70293;SDS011;72548;48.884;2.334;2023-10-09T11:02:11;20.10;;;6.60;;
70293;SDS011;72548;48.884;2.334;2023-10-09T11:04:37;14.30;;;3.97;;
70293;SDS011;72548;48.884;2.334;2023-10-09T11:07:10;9.10;;;3.53;;
70293;SDS011;72548;48.884;2.334;2023-10-09T11:09:50;13.13;;;4.55;;
70293;SDS011;72548;48.884;2.334;2023-10-09T11:12:29;14.05;;;3.45;;
70293;SDS011;72548;48.884;2.334;2023-10-09T11:15:10;12.70;;;3.22;;
70293;SDS011;72548;48.884;2.334;2023-10-09T11:18:07;13.73;;;3.20;;
70293;SDS011;72548;48.884;2.334;2023-10-09T11:20:33;10.13;;;2.85;;
70293;SDS011;72548;48.884;2.334;2023-10-09T11:23:00;10.02;;;3.00;;
70293;SDS011;72548;48.884;2.334;2023-10-09T11:25:32;8.10;;;2.65;;
70293;SDS011;72548;48.884;2.334;2023-10-09T11:27:58;9.57;;;3.10;;
70293;SDS011;72548;48.884;2.334;2023-10-09T11:30:40;15.23;;;4.00;;
70293;SDS011;72548;48.884;2.334;2023-10-09T11:33:06;12.67;;;3.50;;
70293;SDS011;72548;48.884;2.334;2023-10-09T11:35:39;19.83;;;6.30;;
70293;SDS011;72548;48.884;2.334;2023-10-09T11:38:08;18.25;;;3.75;;
70293;SDS011;72548;48.884;2.334;2023-10-09T11:40:46;12.93;;;3.88;;
70293;SDS011;72548;48.884;2.334;2023-10-09T11:43:18;14.23;;;4.35;;
70293;SDS011;72548;48.884;2.334;2023-10-09T11:45:51;12.77;;;2.73;;
70293;SDS011;72548;48.884;2.334;2023-10-09T11:48:20;10.27;;;3.03;;
70293;SDS011;72548;48.884;2.334;2023-10-09T11:50:56;16.13;;;3.63;;
70293;SDS011;72548;48.884;2.334;2023-10-09T11:53:45;13.50;;;4.22;;
70293;SDS011;72548;48.884;2.334;2023-10-09T11:56:23;11.00;;;3.50;;
70293;SDS011;72548;48.884;2.334;2023-10-09T11:58:52;27.13;;;3.20;;
70293;SDS011;72548;48.884;2.334;2023-10-09T12:01:18;13.80;;;3.03;;
70293;SDS011;72548;48.884;2.334;2023-10-09T12:03:47;16.77;;;3.38;;
70293;SDS011;72548;48.884;2.334;2023-10-09T12:06:17;12.25;;;3.17;;
70293;SDS011;72548;48.884;2.334;2023-10-09T12:08:44;19.83;;;4.10;;
70293;SDS011;72548;48.884;2.334;2023-10-09T12:11:13;11.33;;;3.60;;
70293;SDS011;72548;48.884;2.334;2023-10-09T12:13:47;13.82;;;3.78;;
70293;SDS011;72548;48.884;2.334;2023-10-09T12:16:13;10.52;;;2.90;;
70293;SDS011;72548;48.884;2.334;2023-10-09T12:18:40;9.57;;;3.50;;
70293;SDS011;72548;48.884;2.334;2023-10-09T12:21:06;9.68;;;3.67;;
70293;SDS011;72548;48.884;2.334;2023-10-09T12:23:32;15.38;;;4.00;;
70293;SDS011;72548;48.884;2.334;2023-10-09T12:26:01;12.98;;;3.60;;
70293;SDS011;72548;48.884;2.334;2023-10-09T12:28:27;9.70;;;3.20;;
70293;SDS011;72548;48.884;2.334;2023-10-09T12:30:53;10.90;;;4.23;;
70293;SDS011;72548;48.884;2.334;2023-10-09T12:33:19;14.02;;;5.50;;
70293;SDS011;72548;48.884;2.334;2023-10-09T12:35:52;13.07;;;5.03;;
70293;SDS011;72548;48.884;2.334;2023-10-09T12:38:18;13.10;;;4.00;;
70293;SDS011;72548;48.884;2.334;2023-10-09T12:40:47;11.00;;;4.63;;
70293;SDS011;72548;48.884;2.334;2023-10-09T12:43:18;9.43;;;3.67;;
70293;SDS011;72548;48.884;2.334;2023-10-09T12:45:45;14.00;;;4.47;;
70293;SDS011;72548;48.884;2.334;2023-10-09T12:48:13;9.77;;;4.38;;
70293;SDS011;72548;48.884;2.334;2023-10-09T12:50:39;13.53;;;4.57;;
70293;SDS011;72548;48.884;2.334;2023-10-09T12:53:09;11.57;;;3.70;;
70293;SDS011;72548;48.884;2.334;2023-10-09T12:55:38;12.93;;;3.95;;
70293;SDS011;72548;48.884;2.334;2023-10-09T12:58:06;10.60;;;4.10;;
70293;SDS011;72548;48.884;2.334;2023-10-09T13:00:34;11.15;;;4.10;;
70293;SDS011;72548;48.884;2.334;2023-10-09T13:03:07;13.33;;;3.73;;
70293;SDS011;72548;48.884;2.334;2023-10-09T13:05:52;13.02;;;4.07;;
70293;SDS011;72548;48.884;2.334;2023-10-09T13:08:24;12.80;;;4.03;;
70293;SDS011;72548;48.884;2.334;2023-10-09T13:10:56;10.63;;;3.20;;
70293;SDS011;72548;48.884;2.334;2023-10-09T13:13:29;10.55;;;3.53;;
70293;SDS011;72548;48.884;2.334;2023-10-09T13:16:15;11.93;;;5.73;;
70293;SDS011;72548;48.884;2.334;2023-10-09T13:18:53;13.70;;;4.10;;
70293;SDS011;72548;48.884;2.334;2023-10-09T13:21:23;13.00;;;4.43;;
70293;SDS011;72548;48.884;2.334;2023-10-09T13:23:51;7.88;;;3.10;;
70293;SDS011;72548;48.884;2.334;2023-10-09T13:26:17;10.97;;;3.70;;
70293;SDS011;72548;48.884;2.334;2023-10-09T13:28:47;9.93;;;3.15;;
70293;SDS011;72548;48.884;2.334;2023-10-09T13:31:14;9.45;;;3.20;;
70293;SDS011;72548;48.884;2.334;2023-10-09T13:33:40;12.48;;;3.63;;
70293;SDS011;72548;48.884;2.334;2023-10-09T13:36:07;12.00;;;2.95;;
70293;SDS011;72548;48.884;2.334;2023-10-09T13:38:47;11.80;;;3.00;;
70293;SDS011;72548;48.884;2.334;2023-10-09T13:41:12;13.23;;;3.80;;
70293;SDS011;72548;48.884;2.334;2023-10-09T13:43:38;8.63;;;3.33;;
70293;SDS011;72548;48.884;2.334;2023-10-09T13:46:06;13.55;;;3.75;;
70293;SDS011;72548;48.884;2.334;2023-10-09T13:48:36;15.20;;;4.95;;
70293;SDS011;72548;48.884;2.334;2023-10-09T13:51:09;17.30;;;5.70;;
70293;SDS011;72548;48.884;2.334;2023-10-09T13:53:42;8.88;;;3.38;;
70293;SDS011;72548;48.884;2.334;2023-10-09T13:56:11;11.13;;;3.03;;
70293;SDS011;72548;48.884;2.334;2023-10-09T13:58:40;14.63;;;2.92;;
70293;SDS011;72548;48.884;2.334;2023-10-09T14:01:08;13.15;;;3.83;;
70293;SDS011;72548;48.884;2.334;2023-10-09T14:03:34;10.10;;;2.80;;
70293;SDS011;72548;48.884;2.334;2023-10-09T14:06:00;8.43;;;3.10;;
70293;SDS011;72548;48.884;2.334;2023-10-09T14:08:35;13.82;;;2.63;;
70293;SDS011;72548;48.884;2.334;2023-10-09T14:11:07;10.13;;;2.90;;
70293;SDS011;72548;48.884;2.334;2023-10-09T14:13:38;18.73;;;2.80;;
70293;SDS011;72548;48.884;2.334;2023-10-09T14:16:04;10.02;;;2.40;;
70293;SDS011;72548;48.884;2.334;2023-10-09T14:18:29;9.43;;;2.83;;
70293;SDS011;72548;48.884;2.334;2023-10-09T14:20:55;19.15;;;5.50;;
70293;SDS011;72548;48.884;2.334;2023-10-09T14:23:21;9.10;;;2.53;;
70293;SDS011;72548;48.884;2.334;2023-10-09T14:25:47;10.70;;;2.60;;
70293;SDS011;72548;48.884;2.334;2023-10-09T14:28:14;9.23;;;3.17;;
70293;SDS011;72548;48.884;2.334;2023-10-09T14:30:44;9.75;;;3.25;;
70293;SDS011;72548;48.884;2.334;2023-10-09T14:33:11;13.90;;;4.15;;
70293;SDS011;72548;48.884;2.334;2023-10-09T14:35:47;15.30;;;4.17;;
70293;SDS011;72548;48.884;2.334;2023-10-09T14:38:13;11.23;;;4.63;;
70293;SDS011;72548;48.884;2.334;2023-10-09T14:40:43;12.55;;;4.03;;
70293;SDS011;72548;48.884;2.334;2023-10-09T14:43:09;13.38;;;4.65;;
70293;SDS011;72548;48.884;2.334;2023-10-09T14:45:46;13.27;;;4.13;;
70293;SDS011;72548;48.884;2.334;2023-10-09T14:48:15;11.77;;;3.93;;
70293;SDS011;72548;48.884;2.334;2023-10-09T14:50:49;15.40;;;5.57;;
70293;SDS011;72548;48.884;2.334;2023-10-09T14:53:18;10.32;;;3.85;;
70293;SDS011;72548;48.884;2.334;2023-10-09T14:55:53;10.77;;;3.63;;
70293;SDS011;72548;48.884;2.334;2023-10-09T14:58:19;9.73;;;2.95;;
70293;SDS011;72548;48.884;2.334;2023-10-09T15:00:44;11.27;;;3.03;;
70293;SDS011;72548;48.884;2.334;2023-10-09T15:03:15;11.60;;;3.65;;
70293;SDS011;72548;48.884;2.334;2023-10-09T15:05:41;13.17;;;3.67;;
70293;SDS011;72548;48.884;2.334;2023-10-09T15:08:07;12.73;;;3.42;;
70293;SDS011;72548;48.884;2.334;2023-10-09T15:10:36;13.48;;;3.20;;
70293;SDS011;72548;48.884;2.334;2023-10-09T15:13:09;9.55;;;3.20;;
70293;SDS011;72548;48.884;2.334;2023-10-09T15:15:39;14.23;;;3.70;;
70293;SDS011;72548;48.884;2.334;2023-10-09T15:18:05;16.80;;;3.67;;
70293;SDS011;72548;48.884;2.334;2023-10-09T15:20:31;10.83;;;2.87;;
70293;SDS011;72548;48.884;2.334;2023-10-09T15:22:56;10.67;;;3.77;;
70293;SDS011;72548;48.884;2.334;2023-10-09T15:25:22;10.63;;;3.15;;
70293;SDS011;72548;48.884;2.334;2023-10-09T15:27:47;14.50;;;3.00;;